Terminal Aerodrome Forecast
Issued by NWS

Home | Current Version | Previous Version | Text Only | Print | Product List | Glossary On
Versions: 1 2 3 4 5 6 7 8 9 10 11 12 13 14 15 16 17 18 19 20
000
FTUS45 KSLC 040535
TAFEVW
TAF
KEVW 040535Z 0406/0506 21011KT P6SM OVC030
     FM040800 22011KT P6SM FEW030 BKN100
     FM041800 23016G22KT P6SM SCT040 BKN070
     FM050000 24020KT P6SM VCSH SCT020 BKN035=

USA.gov is the U.S. government's official web portal to all federal, state and local government web resources and services.